Time;durP1;ratioP1;P1;durP2;ratioP2;P2;SDS_P1;SDS_P2;PMS_P1;PMS_P2;Temp;Humidity;BMP_temperature;BMP_pressure;BME280_temperature;BME280_humidity;BME280_pressure;Samples;Min_cycle;Max_cycle;Signal;HPM_P1;HPM_P2
2022/01/23 00:01:50;;;;;;;5.90;3.50;;;5.10;64.20;;;;;;5082206;28;20040;-68
2022/01/23 00:04:28;;;;;;;9.52;4.75;;;5.10;64.30;;;;;;5067122;28;20020;-69
2022/01/23 00:06:54;;;;;;;7.60;3.88;;;5.10;64.20;;;;;;5083080;28;20059;-68
2022/01/23 00:09:20;;;;;;;7.18;3.95;;;5.10;64.00;;;;;;5084813;28;20473;-68
2022/01/23 00:12:09;;;;;;;6.15;4.20;;;5.10;64.00;;;;;;5083456;28;20032;-67
2022/01/23 00:17:22;;;;;;;8.07;4.55;;;5.10;63.80;;;;;;5070241;28;20512;-67
2022/01/23 00:19:59;;;;;;;5.70;3.67;;;5.20;63.80;;;;;;5050692;28;20035;-67
2022/01/23 00:22:37;;;;;;;10.02;3.97;;;5.10;63.90;;;;;;5066780;28;20064;-67
2022/01/23 00:30:34;;;;;;;7.30;3.85;;;5.20;63.90;;;;;;5070188;28;20028;-68
2022/01/23 00:33:03;;;;;;;10.07;4.50;;;5.20;63.70;;;;;;5069176;28;20190;-68
2022/01/23 00:35:29;;;;;;;7.78;4.15;;;5.20;64.00;;;;;;5069218;28;20032;-68
2022/01/23 00:37:56;;;;;;;8.27;4.55;;;5.20;63.70;;;;;;5068621;28;20166;-67
2022/01/23 00:40:23;;;;;;;8.93;4.60;;;5.20;64.00;;;;;;5069167;28;20097;-66
2022/01/23 00:42:49;;;;;;;8.45;4.13;;;5.20;63.90;;;;;;5068448;28;20492;-67
2022/01/23 00:47:44;;;;;;;9.15;3.78;;;5.20;63.40;;;;;;5069416;28;20371;-68
2022/01/23 00:50:28;;;;;;;7.13;3.95;;;5.20;63.40;;;;;;5069675;28;20040;-69
2022/01/23 00:52:54;;;;;;;9.32;5.00;;;5.20;63.30;;;;;;5052150;28;20108;-68
2022/01/23 00:55:20;;;;;;;8.10;4.05;;;5.20;63.60;;;;;;5069986;28;20090;-69
2022/01/23 00:57:46;;;;;;;10.88;5.63;;;5.30;63.70;;;;;;5051999;28;20032;-68
2022/01/23 01:00:12;;;;;;;8.75;3.95;;;5.30;63.60;;;;;;5068888;28;20036;-67
2022/01/23 01:02:39;;;;;;;7.40;3.92;;;5.30;63.30;;;;;;5069980;28;20056;-69
2022/01/23 01:05:05;;;;;;;6.40;3.80;;;5.30;62.90;;;;;;5069523;28;20017;-69
2022/01/23 01:07:31;;;;;;;8.05;4.30;;;5.30;63.00;;;;;;5065078;28;20025;-68
2022/01/23 01:10:02;;;;;;;7.20;3.60;;;5.30;63.10;;;;;;5051682;28;20077;-68
2022/01/23 01:12:37;;;;;;;6.70;3.88;;;5.40;63.00;;;;;;5052805;28;20494;-67
2022/01/23 01:31:34;;;;;;;7.53;4.78;;;5.50;63.50;;;;;;5069599;28;20043;-69
2022/01/23 01:39:00;;;;;;;8.95;4.85;;;5.50;64.20;;;;;;5051244;28;20059;-68
2022/01/23 01:41:26;;;;;;;11.43;5.63;;;5.50;64.40;;;;;;5068608;28;20127;-68
2022/01/23 01:43:53;;;;;;;8.15;5.60;;;5.60;64.40;;;;;;5068193;28;20020;-67
2022/01/23 01:46:19;;;;;;;10.73;6.10;;;5.50;64.60;;;;;;5068850;28;20043;-67
2022/01/23 01:48:45;;;;;;;8.98;5.82;;;5.50;65.00;;;;;;5068057;28;20047;-66
2022/01/23 01:51:16;;;;;;;11.00;6.32;;;5.50;65.30;;;;;;5050928;28;20473;-67
2022/01/23 01:53:48;;;;;;;12.77;6.22;;;5.50;65.60;;;;;;5069150;28;20039;-66
2022/01/23 01:56:15;;;;;;;12.73;6.28;;;5.50;65.90;;;;;;5069207;28;20136;-68
2022/01/23 02:02:42;;;;;;;16.25;6.57;;;5.50;66.20;;;;;;5068658;28;20078;-69
2022/01/23 02:09:22;;;;;;;10.65;6.60;;;5.60;66.50;;;;;;5069748;28;20161;-69
2022/01/23 02:53:13;;;;;;;14.43;9.43;;;5.80;69.00;;;;;;5053639;28;20093;-66
2022/01/23 02:55:40;;;;;;;14.52;9.32;;;5.80;69.10;;;;;;5066830;28;20772;-67
2022/01/23 02:58:08;;;;;;;15.00;10.00;;;5.90;69.20;;;;;;5051109;28;20477;-68
2022/01/23 03:00:47;;;;;;;12.68;9.75;;;5.90;69.30;;;;;;5050784;28;20386;-67
2022/01/23 03:03:15;;;;;;;13.23;9.68;;;5.90;69.30;;;;;;5067047;28;20076;-69
2022/01/23 03:05:41;;;;;;;13.65;9.75;;;5.90;69.30;;;;;;5067690;28;20405;-67
2022/01/23 03:10:47;;;;;;;13.23;9.80;;;5.90;69.50;;;;;;5067580;28;20033;-67
2022/01/23 03:27:14;;;;;;;15.55;11.63;;;6.00;71.40;;;;;;5064767;28;20622;-67
2022/01/23 03:32:27;;;;;;;15.88;12.48;;;6.00;72.20;;;;;;5067125;28;20107;-68
2022/01/23 03:34:52;;;;;;;14.18;12.55;;;6.00;72.60;;;;;;5049117;28;20063;-69
2022/01/23 03:37:18;;;;;;;14.85;11.85;;;5.90;72.80;;;;;;5066709;28;20068;-68
2022/01/23 03:39:44;;;;;;;14.75;12.18;;;5.90;73.60;;;;;;5068245;28;20070;-67
2022/01/23 03:42:10;;;;;;;14.70;13.18;;;5.90;73.90;;;;;;5067128;28;20421;-68
2022/01/23 03:44:40;;;;;;;14.93;13.15;;;5.90;74.10;;;;;;5050069;28;20290;-68
2022/01/23 03:47:36;;;;;;;14.52;12.65;;;5.90;74.90;;;;;;5067520;28;20042;-68
2022/01/23 03:50:02;;;;;;;13.95;11.10;;;5.90;75.10;;;;;;5071270;28;20024;-68
2022/01/23 03:52:28;;;;;;;13.23;11.73;;;5.90;75.10;;;;;;5071699;28;20028;-68
2022/01/23 03:54:54;;;;;;;14.07;12.25;;;5.90;75.30;;;;;;5054292;28;20024;-68
2022/01/23 03:57:20;;;;;;;13.50;11.43;;;5.90;76.00;;;;;;5073146;28;20032;-68
2022/01/23 03:59:45;;;;;;;15.48;11.70;;;5.90;75.90;;;;;;5072372;28;20052;-67
2022/01/23 04:02:11;;;;;;;13.40;11.63;;;5.90;76.00;;;;;;5071514;28;20497;-69
2022/01/23 04:04:38;;;;;;;12.32;10.85;;;6.00;76.00;;;;;;5073702;28;20416;-69
2022/01/23 04:07:07;;;;;;;12.88;10.43;;;6.00;76.50;;;;;;5072507;28;20024;-68
2022/01/23 04:09:33;;;;;;;12.63;10.00;;;5.90;76.60;;;;;;5055110;28;20042;-68
2022/01/23 04:12:00;;;;;;;10.63;8.75;;;5.90;77.20;;;;;;5072570;28;20028;-68
2022/01/23 04:14:27;;;;;;;10.45;9.27;;;5.90;77.30;;;;;;5073130;28;20033;-69
2022/01/23 04:20:22;;;;;;;9.35;8.32;;;6.00;77.30;;;;;;5072939;28;20021;-69
2022/01/23 04:33:52;;;;;;;5.90;4.97;;;6.00;76.70;;;;;;5069716;28;20090;-68
2022/01/23 05:01:00;;;;;;;5.22;3.88;;;6.10;75.20;;;;;;5071497;28;20027;-67
2022/01/23 05:06:12;;;;;;;4.95;3.63;;;6.10;75.60;;;;;;5092273;28;20035;-68
2022/01/23 05:08:38;;;;;;;4.22;2.80;;;6.00;76.00;;;;;;5090419;28;20028;-68
2022/01/23 05:11:06;;;;;;;3.45;2.50;;;5.90;76.60;;;;;;5088100;28;20078;-68
2022/01/23 05:13:32;;;;;;;3.67;2.50;;;5.80;76.10;;;;;;5092154;28;20056;-69
2022/01/23 05:15:58;;;;;;;3.00;2.20;;;5.70;76.20;;;;;;5091358;28;20136;-68
2022/01/23 05:18:24;;;;;;;4.43;2.60;;;5.70;76.40;;;;;;5091934;28;20468;-67
2022/01/23 05:21:00;;;;;;;3.20;2.33;;;5.60;76.90;;;;;;5091569;28;20094;-68
2022/01/23 05:23:26;;;;;;;5.78;2.83;;;5.70;77.40;;;;;;5092458;28;20040;-69
2022/01/23 05:25:52;;;;;;;4.13;3.17;;;5.80;77.70;;;;;;5091587;28;20027;-67
2022/01/23 05:28:18;;;;;;;3.90;2.95;;;5.70;77.50;;;;;;5090493;28;20166;-68
2022/01/23 05:30:44;;;;;;;3.50;2.28;;;5.80;77.60;;;;;;5089869;28;20032;-68
2022/01/23 05:33:09;;;;;;;4.45;2.40;;;5.70;77.30;;;;;;5090875;28;20054;-67
2022/01/23 05:35:35;;;;;;;3.90;1.98;;;5.70;76.80;;;;;;5092261;28;20035;-68
2022/01/23 05:38:01;;;;;;;4.05;2.50;;;5.70;76.70;;;;;;5090172;28;20028;-68
2022/01/23 05:40:29;;;;;;;2.97;2.50;;;5.70;76.90;;;;;;5091440;28;20469;-70
2022/01/23 05:42:55;;;;;;;4.30;2.40;;;5.80;77.00;;;;;;5090731;28;20040;-68
2022/01/23 05:45:21;;;;;;;3.75;2.13;;;5.80;77.00;;;;;;5091775;28;20420;-68
2022/01/23 05:47:47;;;;;;;3.45;2.60;;;5.80;77.30;;;;;;5090835;28;20028;-67
2022/01/23 05:50:12;;;;;;;3.85;2.97;;;5.80;77.40;;;;;;5090083;28;20038;-68
2022/01/23 05:52:38;;;;;;;3.40;2.53;;;5.90;77.50;;;;;;5090587;28;20127;-67
2022/01/23 05:55:05;;;;;;;4.25;2.85;;;6.00;77.70;;;;;;5089891;28;20422;-67
2022/01/23 05:57:31;;;;;;;3.38;2.47;;;6.00;77.70;;;;;;5088955;28;20089;-68
2022/01/23 05:59:56;;;;;;;4.55;2.88;;;6.00;77.60;;;;;;5089494;28;20031;-68
2022/01/23 06:02:22;;;;;;;4.05;3.10;;;6.10;77.60;;;;;;5074579;28;20076;-68
2022/01/23 06:04:48;;;;;;;4.38;2.75;;;6.00;77.70;;;;;;5069861;28;20032;-67
2022/01/23 06:07:14;;;;;;;4.07;3.33;;;6.10;78.10;;;;;;5069654;28;20549;-68
2022/01/23 06:09:41;;;;;;;6.93;3.25;;;6.10;78.00;;;;;;5068473;28;20453;-69
2022/01/23 06:12:07;;;;;;;7.15;3.20;;;6.10;77.90;;;;;;5068601;28;20110;-69
2022/01/23 06:14:33;;;;;;;4.28;3.28;;;6.00;78.20;;;;;;5069662;28;20028;-68
2022/01/23 06:17:00;;;;;;;4.25;2.97;;;6.00;78.00;;;;;;5067691;28;20029;-67
2022/01/23 06:19:26;;;;;;;4.63;3.42;;;6.00;78.20;;;;;;5068263;28;20037;-67
2022/01/23 06:21:52;;;;;;;4.78;3.50;;;5.90;78.40;;;;;;5068735;28;20036;-67
2022/01/23 06:24:26;;;;;;;4.95;3.67;;;6.00;78.50;;;;;;5069743;28;20047;-68
2022/01/23 06:26:54;;;;;;;4.93;3.33;;;6.00;78.60;;;;;;5034709;28;20040;-67
2022/01/23 06:29:21;;;;;;;4.80;3.63;;;6.10;78.50;;;;;;5066496;28;20033;-67
2022/01/23 06:32:05;;;;;;;6.15;3.80;;;6.10;78.20;;;;;;5069632;28;20119;-66
2022/01/23 06:34:50;;;;;;;5.03;3.60;;;6.10;78.10;;;;;;5065278;28;20039;-68
2022/01/23 06:37:16;;;;;;;4.25;3.38;;;6.10;78.20;;;;;;5069695;28;20435;-69
2022/01/23 06:39:42;;;;;;;4.90;3.80;;;6.10;78.20;;;;;;5052052;28;20032;-69
2022/01/23 06:42:08;;;;;;;4.28;3.45;;;6.10;78.20;;;;;;5068041;28;20492;-68
2022/01/23 06:44:34;;;;;;;5.22;3.60;;;6.20;78.20;;;;;;5069420;28;20107;-68
2022/01/23 06:47:00;;;;;;;4.63;4.03;;;6.20;78.20;;;;;;5068503;28;20029;-68
2022/01/23 06:49:26;;;;;;;4.50;3.90;;;6.20;78.20;;;;;;5050428;28;20043;-68
2022/01/23 06:51:52;;;;;;;7.80;4.60;;;6.20;78.20;;;;;;5050223;28;20173;-68
2022/01/23 06:54:19;;;;;;;5.13;4.05;;;6.20;78.30;;;;;;5049998;28;20381;-68
2022/01/23 06:56:45;;;;;;;6.03;4.22;;;6.30;78.60;;;;;;5066968;28;20044;-68
2022/01/23 06:59:11;;;;;;;5.97;4.07;;;6.20;78.40;;;;;;5028651;28;20037;-68
2022/01/23 07:01:37;;;;;;;6.70;4.40;;;6.20;78.50;;;;;;5049975;28;20517;-68
2022/01/23 07:04:03;;;;;;;7.47;4.60;;;6.20;78.70;;;;;;5068344;28;20130;-68
2022/01/23 07:06:29;;;;;;;5.93;4.72;;;6.20;78.80;;;;;;5067956;28;20052;-68
2022/01/23 07:08:54;;;;;;;5.43;4.45;;;6.20;78.90;;;;;;5049921;28;20038;-68
2022/01/23 07:11:20;;;;;;;7.03;5.00;;;6.30;78.80;;;;;;5048431;28;20036;-68
2022/01/23 07:13:46;;;;;;;5.97;4.50;;;6.30;78.60;;;;;;5067391;28;20082;-69
2022/01/23 07:16:12;;;;;;;6.93;4.93;;;6.30;78.60;;;;;;5067409;28;20401;-67
2022/01/23 07:18:37;;;;;;;7.32;5.00;;;6.30;78.70;;;;;;5068254;28;20082;-68
2022/01/23 07:21:03;;;;;;;6.68;4.68;;;6.30;78.70;;;;;;5066810;28;20052;-68
2022/01/23 07:23:29;;;;;;;5.93;4.70;;;6.40;78.60;;;;;;5068534;28;20028;-68
2022/01/23 07:25:55;;;;;;;6.47;4.78;;;6.40;78.60;;;;;;5070938;28;20036;-68
2022/01/23 07:28:24;;;;;;;7.22;5.18;;;6.40;78.60;;;;;;5071482;28;20652;-68
2022/01/23 07:30:59;;;;;;;6.40;4.70;;;6.40;78.60;;;;;;5054237;28;20055;-67
2022/01/23 07:33:24;;;;;;;7.32;5.53;;;6.40;78.40;;;;;;5073221;28;20110;-68
2022/01/23 07:35:50;;;;;;;6.65;5.15;;;6.40;78.50;;;;;;5054283;28;20469;-67
2022/01/23 07:38:17;;;;;;;6.70;5.18;;;6.40;78.60;;;;;;5072104;28;20086;-68
2022/01/23 07:40:45;;;;;;;6.53;5.20;;;6.40;78.50;;;;;;5054965;28;20024;-68
2022/01/23 07:43:11;;;;;;;6.55;5.50;;;6.40;78.60;;;;;;5071708;28;20097;-68
2022/01/23 07:45:38;;;;;;;7.45;5.13;;;6.40;78.70;;;;;;5073227;28;20020;-69
2022/01/23 07:48:04;;;;;;;8.32;5.63;;;6.30;78.80;;;;;;5071050;28;20114;-69
2022/01/23 07:50:30;;;;;;;6.00;4.97;;;6.30;79.00;;;;;;5055134;28;20473;-70
2022/01/23 07:52:56;;;;;;;6.95;5.63;;;6.30;79.10;;;;;;5071344;28;20029;-68
2022/01/23 07:55:21;;;;;;;9.30;5.05;;;6.40;79.20;;;;;;5072893;28;20469;-68
2022/01/23 07:57:47;;;;;;;6.90;5.20;;;6.40;79.10;;;;;;5070849;28;20029;-68
2022/01/23 08:00:14;;;;;;;7.10;5.07;;;6.40;79.10;;;;;;5070747;28;20036;-68
2022/01/23 08:02:40;;;;;;;7.03;5.50;;;6.40;79.10;;;;;;5083574;28;20052;-68
2022/01/23 08:05:06;;;;;;;7.45;5.78;;;6.40;79.10;;;;;;5091506;28;20032;-69
2022/01/23 08:07:34;;;;;;;7.10;5.03;;;6.40;79.10;;;;;;5093690;28;20016;-69
2022/01/23 08:10:03;;;;;;;7.05;5.43;;;6.50;79.20;;;;;;5092815;28;20020;-68
2022/01/23 08:12:30;;;;;;;6.13;5.20;;;6.50;78.90;;;;;;5092636;28;20090;-69
2022/01/23 08:14:57;;;;;;;8.23;6.13;;;6.40;78.80;;;;;;5092135;28;20527;-68
2022/01/23 08:17:26;;;;;;;8.13;5.50;;;6.50;78.80;;;;;;5092318;28;20499;-69
2022/01/23 08:19:56;;;;;;;7.88;5.70;;;6.50;78.70;;;;;;5090384;28;20020;-67
2022/01/23 08:22:24;;;;;;;7.10;5.32;;;6.50;78.60;;;;;;5090400;28;20071;-69
2022/01/23 08:24:54;;;;;;;7.60;5.45;;;6.50;78.50;;;;;;5093447;28;20020;-69
2022/01/23 08:27:20;;;;;;;7.05;5.03;;;6.40;78.30;;;;;;5088159;28;20028;-68
2022/01/23 08:29:46;;;;;;;5.75;4.90;;;6.50;78.60;;;;;;5086662;28;20056;-68
2022/01/23 08:32:12;;;;;;;6.80;5.28;;;6.50;78.50;;;;;;5087929;28;20108;-67
2022/01/23 08:34:39;;;;;;;7.65;5.15;;;6.60;78.60;;;;;;5087390;28;20036;-68
2022/01/23 08:37:06;;;;;;;6.30;4.80;;;6.60;78.30;;;;;;5088909;28;20426;-68
2022/01/23 08:39:35;;;;;;;6.10;4.72;;;6.60;78.10;;;;;;5084187;28;20024;-68
2022/01/23 08:42:20;;;;;;;6.38;4.90;;;6.60;78.00;;;;;;5084837;28;20429;-68
2022/01/23 08:44:47;;;;;;;6.93;5.10;;;6.60;77.70;;;;;;5086579;28;20032;-68
2022/01/23 08:47:13;;;;;;;5.45;4.18;;;6.60;77.60;;;;;;5087829;28;20028;-68
2022/01/23 08:49:45;;;;;;;7.90;6.18;;;6.60;77.90;;;;;;5091362;28;20462;-68
2022/01/23 08:52:15;;;;;;;5.97;4.90;;;6.60;77.60;;;;;;5089361;28;20031;-69
2022/01/23 08:54:41;;;;;;;6.32;4.68;;;6.60;77.70;;;;;;5089683;28;20028;-68
2022/01/23 08:57:06;;;;;;;8.77;5.72;;;6.60;77.90;;;;;;5090320;28;20441;-68
2022/01/23 08:59:32;;;;;;;7.53;5.65;;;6.50;77.90;;;;;;5091063;28;20032;-68
2022/01/23 09:01:58;;;;;;;8.48;5.85;;;6.30;78.20;;;;;;5084930;28;20051;-68
2022/01/23 09:04:24;;;;;;;8.40;5.82;;;6.20;78.70;;;;;;5053188;28;20181;-67
2022/01/23 09:06:50;;;;;;;11.00;7.72;;;6.20;79.00;;;;;;5070924;28;20475;-69
2022/01/23 09:09:19;;;;;;;13.18;9.20;;;6.20;79.00;;;;;;5053027;28;20059;-68
2022/01/23 09:12:20;;;;;;;10.43;7.57;;;6.20;79.30;;;;;;5051307;28;20043;-68
2022/01/23 09:14:46;;;;;;;10.50;7.72;;;6.30;79.40;;;;;;5070430;28;20032;-69
2022/01/23 09:17:12;;;;;;;9.60;7.15;;;6.30;79.80;;;;;;5069821;28;20025;-68
2022/01/23 09:19:39;;;;;;;10.95;7.75;;;6.30;79.40;;;;;;5052844;28;20079;-68
2022/01/23 09:22:05;;;;;;;10.38;7.65;;;6.30;79.30;;;;;;5070447;28;20089;-68
2022/01/23 09:24:32;;;;;;;10.82;7.25;;;6.30;79.00;;;;;;5070399;28;20033;-69
2022/01/23 09:27:04;;;;;;;12.55;9.35;;;6.30;79.30;;;;;;5070606;28;20029;-69
2022/01/23 09:29:35;;;;;;;14.35;9.35;;;6.30;80.00;;;;;;5070207;28;20033;-69
2022/01/23 09:32:03;;;;;;;12.15;8.98;;;6.30;79.30;;;;;;5056078;28;20497;-67
2022/01/23 09:34:32;;;;;;;13.65;9.80;;;6.30;79.40;;;;;;5051183;28;20039;-70
2022/01/23 09:37:03;;;;;;;13.20;9.43;;;6.30;79.60;;;;;;5030030;28;20055;-67
2022/01/23 09:39:30;;;;;;;14.95;11.25;;;6.30;79.70;;;;;;5047446;28;20036;-69
2022/01/23 09:42:28;;;;;;;16.70;12.30;;;6.40;79.70;;;;;;5064557;28;20036;-66
2022/01/23 09:44:59;;;;;;;14.48;10.23;;;6.40;79.70;;;;;;5066755;28;20029;-66
2022/01/23 09:47:25;;;;;;;19.52;13.73;;;6.40;79.70;;;;;;5062916;28;20070;-66
2022/01/23 09:49:55;;;;;;;14.63;11.60;;;6.40;79.60;;;;;;5063905;28;20028;-66
2022/01/23 09:52:22;;;;;;;14.00;11.20;;;6.30;79.70;;;;;;5065116;28;20039;-67
2022/01/23 09:54:57;;;;;;;18.33;11.88;;;6.40;79.90;;;;;;5046205;28;20025;-69
2022/01/23 09:57:28;;;;;;;15.02;11.57;;;6.40;79.90;;;;;;5066439;28;20036;-69
2022/01/23 09:59:54;;;;;;;15.32;11.88;;;6.40;79.70;;;;;;5052690;28;20037;-67
2022/01/23 10:02:23;;;;;;;17.95;13.07;;;6.50;79.90;;;;;;5069973;28;20143;-69
2022/01/23 10:05:07;;;;;;;19.42;13.55;;;6.60;79.70;;;;;;5071392;28;20362;-66
2022/01/23 10:07:38;;;;;;;17.00;11.88;;;6.60;79.50;;;;;;5071415;28;20103;-69
2022/01/23 10:10:27;;;;;;;19.58;12.95;;;6.60;79.50;;;;;;5070382;28;20028;-68
2022/01/23 10:12:58;;;;;;;18.70;13.38;;;6.60;79.60;;;;;;5070999;28;20123;-68
2022/01/23 10:15:27;;;;;;;20.00;14.32;;;6.70;79.60;;;;;;5072137;28;20070;-69
2022/01/23 10:17:54;;;;;;;17.60;13.15;;;6.60;79.60;;;;;;5071697;28;20031;-69
2022/01/23 10:20:20;;;;;;;17.20;12.60;;;6.60;79.80;;;;;;5071011;28;20020;-68
2022/01/23 10:22:49;;;;;;;19.27;13.85;;;6.60;80.00;;;;;;5072156;28;20036;-68
2022/01/23 10:25:17;;;;;;;21.80;14.18;;;6.60;80.20;;;;;;5070864;28;20108;-68
2022/01/23 10:27:52;;;;;;;18.55;13.40;;;6.70;80.30;;;;;;5072148;28;20098;-68
2022/01/23 10:30:19;;;;;;;21.98;14.43;;;6.70;80.30;;;;;;5070760;28;20020;-70
2022/01/23 10:33:12;;;;;;;19.80;14.20;;;6.70;80.30;;;;;;5071842;28;20040;-70
2022/01/23 10:36:00;;;;;;;21.55;14.60;;;6.70;80.60;;;;;;5043159;28;20040;-69
2022/01/23 10:38:35;;;;;;;18.77;13.50;;;6.70;80.80;;;;;;5071448;28;20134;-69
2022/01/23 10:41:44;;;;;;;19.90;14.10;;;6.70;81.10;;;;;;5071134;28;20028;-67
2022/01/23 10:49:46;;;;;;;20.55;13.05;;;6.80;81.90;;;;;;5051477;28;20104;-68
2022/01/23 10:52:38;;;;;;;16.40;11.88;;;6.80;82.00;;;;;;5039047;28;20024;-69
2022/01/23 10:55:13;;;;;;;16.30;11.02;;;6.90;82.10;;;;;;5070052;28;20028;-71
2022/01/23 10:57:44;;;;;;;13.30;9.20;;;7.00;82.10;;;;;;5071629;28;20029;-70
2022/01/23 11:00:22;;;;;;;13.77;8.65;;;7.00;81.80;;;;;;5051416;28;20653;-69
2022/01/23 11:02:47;;;;;;;11.20;8.45;;;7.10;81.90;;;;;;5080209;28;20040;-70
2022/01/23 11:05:15;;;;;;;11.20;8.35;;;7.20;81.80;;;;;;5089035;28;20047;-69
2022/01/23 11:07:45;;;;;;;14.77;8.65;;;7.20;81.60;;;;;;5088557;28;20032;-70
2022/01/23 11:10:25;;;;;;;14.98;9.80;;;7.30;81.10;;;;;;5088639;28;20035;-71
2022/01/23 11:18:45;;;;;;;11.60;8.20;;;7.50;81.00;;;;;;5087854;28;20047;-71
2022/01/23 11:21:21;;;;;;;9.45;7.18;;;7.50;81.10;;;;;;5086878;28;20032;-72
2022/01/23 11:23:55;;;;;;;11.85;7.95;;;7.50;80.90;;;;;;5089463;28;20036;-71
2022/01/23 11:26:26;;;;;;;10.32;7.55;;;7.60;80.70;;;;;;5088973;28;20119;-71
2022/01/23 11:28:54;;;;;;;11.82;8.20;;;7.70;80.10;;;;;;5089899;28;20036;-71
2022/01/23 11:31:22;;;;;;;10.57;7.50;;;7.60;80.20;;;;;;5089371;28;20135;-71
2022/01/23 11:33:50;;;;;;;14.65;10.40;;;7.60;80.20;;;;;;5091104;28;20055;-71
2022/01/23 11:36:18;;;;;;;13.50;10.02;;;7.50;80.80;;;;;;5090662;28;20077;-71
2022/01/23 11:38:46;;;;;;;14.88;9.68;;;7.50;81.20;;;;;;5090471;28;20027;-72
2022/01/23 11:54:42;;;;;;;17.98;10.98;;;7.60;80.60;;;;;;5088531;28;20028;-71
2022/01/23 11:57:33;;;;;;;14.98;11.07;;;7.60;80.00;;;;;;5087363;28;20024;-71
2022/01/23 12:00:03;;;;;;;17.17;11.20;;;7.60;79.80;;;;;;5088825;28;20427;-72
2022/01/23 12:02:35;;;;;;;16.17;11.82;;;7.70;79.30;;;;;;5063997;28;20040;-72
2022/01/23 12:05:15;;;;;;;20.98;12.88;;;7.70;79.00;;;;;;5051370;28;20056;-72
2022/01/23 12:07:43;;;;;;;17.73;12.32;;;7.80;78.90;;;;;;5069245;28;20032;-70
2022/01/23 12:10:19;;;;;;;18.45;12.50;;;7.80;78.50;;;;;;5066855;28;20051;-74
2022/01/23 12:12:49;;;;;;;17.35;11.95;;;7.80;79.40;;;;;;5054223;28;20024;-73
2022/01/23 12:18:25;;;;;;;17.10;11.95;;;7.70;79.00;;;;;;5069688;28;20066;-72
2022/01/23 12:20:52;;;;;;;17.13;11.93;;;7.60;79.30;;;;;;5071335;28;20029;-73
2022/01/23 12:23:19;;;;;;;17.10;11.55;;;7.70;79.20;;;;;;5054400;28;20036;-73
2022/01/23 12:25:51;;;;;;;16.38;11.70;;;7.70;79.30;;;;;;5073401;28;20154;-73
2022/01/23 12:28:27;;;;;;;14.00;10.35;;;7.60;79.40;;;;;;5072218;28;20040;-74
2022/01/23 12:31:17;;;;;;;15.93;11.68;;;7.70;79.80;;;;;;5073180;28;20399;-73
2022/01/23 12:33:47;;;;;;;16.10;11.00;;;7.70;79.60;;;;;;5070526;28;20021;-72
2022/01/23 12:36:13;;;;;;;14.95;10.98;;;7.70;79.60;;;;;;5072899;28;20106;-74
2022/01/23 12:38:42;;;;;;;16.13;11.15;;;7.80;79.30;;;;;;5072676;28;20588;-73
2022/01/23 12:41:23;;;;;;;14.07;10.00;;;7.80;79.90;;;;;;5071891;28;20081;-73
2022/01/23 12:43:51;;;;;;;13.50;9.48;;;7.90;79.60;;;;;;5070405;28;20024;-72
2022/01/23 12:46:51;;;;;;;13.43;9.23;;;8.00;79.30;;;;;;5073049;28;20082;-73
2022/01/23 12:49:33;;;;;;;23.70;16.17;;;8.10;79.20;;;;;;5069192;28;20111;-73
2022/01/23 12:52:05;;;;;;;19.23;11.10;;;8.20;78.80;;;;;;5071626;28;20063;-73
2022/01/23 12:54:34;;;;;;;13.27;9.57;;;8.20;78.20;;;;;;5072248;28;20051;-73
2022/01/23 12:57:09;;;;;;;14.32;9.82;;;8.00;77.50;;;;;;5053352;28;20055;-73
2022/01/23 12:59:37;;;;;;;13.43;9.98;;;7.90;78.20;;;;;;5071709;28;20033;-72
2022/01/23 13:02:09;;;;;;;15.02;9.68;;;8.00;78.40;;;;;;5062240;28;20047;-72
2022/01/23 13:04:42;;;;;;;15.07;9.97;;;8.10;78.10;;;;;;5091101;28;20028;-72
2022/01/23 13:07:29;;;;;;;15.38;10.32;;;8.10;77.50;;;;;;5088609;28;20782;-72
2022/01/23 13:10:02;;;;;;;13.32;9.68;;;8.10;77.30;;;;;;5090543;28;20020;-71
2022/01/23 13:12:56;;;;;;;13.18;9.40;;;8.00;77.40;;;;;;5088587;28;20030;-72
2022/01/23 13:18:01;;;;;;;15.48;11.18;;;8.00;77.80;;;;;;5089941;28;20445;-72
2022/01/23 13:31:38;;;;;;;16.73;11.85;;;7.90;78.40;;;;;;5092085;28;20480;-72
2022/01/23 13:34:36;;;;;;;16.00;11.25;;;7.90;78.50;;;;;;5091310;28;20024;-72
2022/01/23 13:37:12;;;;;;;15.75;11.13;;;7.90;78.60;;;;;;5090452;28;20406;-72
2022/01/23 13:39:49;;;;;;;16.05;11.10;;;7.90;78.20;;;;;;5090806;28;20020;-73
2022/01/23 14:00:13;;;;;;;16.10;11.50;;;8.00;78.40;;;;;;5038266;28;20116;-73
2022/01/23 14:02:46;;;;;;;14.82;10.80;;;7.90;78.50;;;;;;5037447;28;20045;-72
2022/01/23 14:05:20;;;;;;;12.30;9.10;;;7.80;78.80;;;;;;5018562;28;20494;-73
2022/01/23 14:07:57;;;;;;;13.98;8.52;;;7.80;79.40;;;;;;5037601;28;20430;-72
2022/01/23 14:10:28;;;;;;;12.65;8.85;;;7.90;78.90;;;;;;5037778;28;20420;-72
2022/01/23 14:13:04;;;;;;;12.82;9.15;;;7.90;78.80;;;;;;5035878;28;20390;-71
2022/01/23 14:15:30;;;;;;;15.57;10.02;;;7.90;78.50;;;;;;5035080;28;20033;-73
2022/01/23 14:17:59;;;;;;;11.02;8.35;;;7.90;78.70;;;;;;5021360;28;20470;-72
2022/01/23 14:20:26;;;;;;;12.38;8.10;;;7.90;78.40;;;;;;5022817;28;20425;-72
2022/01/23 14:22:53;;;;;;;9.23;7.38;;;8.00;78.40;;;;;;5036197;28;20043;-73
2022/01/23 14:25:25;;;;;;;10.85;7.93;;;8.00;78.10;;;;;;5038872;28;20041;-72
2022/01/23 14:28:05;;;;;;;11.15;8.30;;;8.00;77.90;;;;;;5034745;28;20017;-72
2022/01/23 14:30:32;;;;;;;11.30;8.57;;;8.10;77.90;;;;;;5055775;28;20028;-72
2022/01/23 14:33:06;;;;;;;11.32;7.90;;;8.10;77.80;;;;;;5089005;28;20089;-72
2022/01/23 14:35:33;;;;;;;15.13;9.00;;;8.10;77.50;;;;;;5087869;28;20419;-72
2022/01/23 14:38:16;;;;;;;10.23;7.70;;;8.10;77.40;;;;;;5089598;28;20063;-72
2022/01/23 14:40:54;;;;;;;11.80;8.35;;;8.00;77.60;;;;;;5089544;28;20051;-72
2022/01/23 14:43:20;;;;;;;11.77;8.57;;;8.00;77.50;;;;;;5082508;28;20315;-73
2022/01/23 14:45:49;;;;;;;12.07;8.50;;;7.90;77.40;;;;;;5090165;28;20424;-74
2022/01/23 14:48:15;;;;;;;11.27;8.27;;;7.90;77.40;;;;;;5091608;28;20031;-73
2022/01/23 14:50:53;;;;;;;11.05;7.85;;;7.90;77.70;;;;;;5092201;28;20181;-73
2022/01/23 14:53:23;;;;;;;9.68;7.47;;;7.90;77.90;;;;;;5090796;28;20384;-73
2022/01/23 14:55:56;;;;;;;11.23;8.38;;;7.80;78.30;;;;;;5090935;28;20020;-73
2022/01/23 14:58:22;;;;;;;9.30;7.22;;;7.70;78.80;;;;;;5090605;28;20028;-73
2022/01/23 15:00:51;;;;;;;12.95;8.18;;;7.70;79.10;;;;;;5090953;28;20032;-73
2022/01/23 15:03:18;;;;;;;12.55;8.38;;;7.60;79.30;;;;;;5074102;28;20126;-74
2022/01/23 15:05:44;;;;;;;10.93;8.20;;;7.60;79.30;;;;;;5071786;28;20029;-73
2022/01/23 15:08:13;;;;;;;10.35;8.02;;;7.70;79.40;;;;;;5053263;28;20032;-73
2022/01/23 15:10:43;;;;;;;12.15;8.77;;;7.60;79.20;;;;;;5034048;28;20093;-71
2022/01/23 15:13:11;;;;;;;11.32;8.68;;;7.60;79.20;;;;;;5039847;28;20028;-70
2022/01/23 15:15:37;;;;;;;14.13;9.85;;;7.60;79.40;;;;;;5070813;28;20025;-69
2022/01/23 15:18:04;;;;;;;12.27;8.32;;;7.60;79.50;;;;;;5052521;28;20020;-66
2022/01/23 15:20:33;;;;;;;11.82;8.80;;;7.60;79.50;;;;;;5071195;28;20469;-71
2022/01/23 15:23:02;;;;;;;15.50;10.02;;;7.60;79.60;;;;;;5067944;28;20056;-69
2022/01/23 15:25:29;;;;;;;14.70;9.70;;;7.50;79.70;;;;;;5067664;28;20048;-67
2022/01/23 15:27:54;;;;;;;12.05;9.05;;;7.50;79.90;;;;;;5069601;28;20449;-71
2022/01/23 15:30:23;;;;;;;12.32;9.05;;;7.50;80.00;;;;;;5056011;28;20040;-67
2022/01/23 15:32:51;;;;;;;12.82;8.95;;;7.50;80.00;;;;;;5050763;28;20048;-70
2022/01/23 15:35:18;;;;;;;13.13;9.52;;;7.50;80.10;;;;;;5050897;28;20032;-70
2022/01/23 15:38:03;;;;;;;10.90;8.20;;;7.50;80.00;;;;;;5070761;28;20097;-65
2022/01/23 15:40:29;;;;;;;13.95;9.07;;;7.40;79.70;;;;;;5070377;28;20059;-68
2022/01/23 15:42:55;;;;;;;16.80;9.85;;;7.30;79.90;;;;;;5052219;28;20060;-69
2022/01/23 15:45:23;;;;;;;16.02;10.18;;;7.40;80.20;;;;;;5071282;28;20070;-69
2022/01/23 15:47:50;;;;;;;14.27;9.77;;;7.40;79.80;;;;;;5073584;28;20032;-69
2022/01/23 15:50:19;;;;;;;11.77;8.63;;;7.40;79.60;;;;;;5056056;28;20128;-70
2022/01/23 15:52:45;;;;;;;15.50;10.57;;;7.40;79.40;;;;;;5033834;28;20070;-69
2022/01/23 15:55:13;;;;;;;14.55;10.60;;;7.50;79.40;;;;;;5051999;28;20174;-72
2022/01/23 15:57:40;;;;;;;12.82;9.38;;;7.40;78.90;;;;;;5053553;28;20020;-73
2022/01/23 16:00:09;;;;;;;14.00;9.82;;;7.50;79.00;;;;;;5051459;28;20043;-71
2022/01/23 16:02:35;;;;;;;15.63;10.27;;;7.60;78.80;;;;;;5052347;28;20052;-72
2022/01/23 16:05:03;;;;;;;16.50;9.80;;;7.50;78.40;;;;;;5071368;28;20044;-71
2022/01/23 16:07:29;;;;;;;14.15;10.25;;;7.50;78.20;;;;;;5072689;28;20040;-71
2022/01/23 16:09:55;;;;;;;12.80;9.70;;;7.50;78.10;;;;;;5074267;28;20419;-70
2022/01/23 16:12:21;;;;;;;15.93;9.95;;;7.60;78.20;;;;;;5093232;28;20409;-71
2022/01/23 16:14:46;;;;;;;18.60;12.93;;;7.60;77.90;;;;;;5093628;28;20036;-69
2022/01/23 16:17:12;;;;;;;11.98;9.45;;;7.60;77.90;;;;;;5091166;28;20040;-67
2022/01/23 16:19:38;;;;;;;13.77;10.27;;;7.50;77.70;;;;;;5092576;28;20024;-72
2022/01/23 16:22:04;;;;;;;17.17;10.82;;;7.50;77.50;;;;;;5093112;28;20044;-72
2022/01/23 16:24:30;;;;;;;13.68;10.50;;;7.60;77.40;;;;;;5085852;28;20081;-72